INFORMACIÓN METAR y TAF
METAR FOR LEGR
ADDS - METARS form results

(0422 UTC 29 June 2022)
Data provider http://aviationweather.gov/metar/data/
 
METAR text: LEGR 290400Z VRB01KT CAVOK 17/08 Q1018
Conditions at: LEGR (GRANADA AIRPORT , ES) observed 0400 UTC 29 June 2022
Temperature: 17.0°C (63°F)
Dewpoint: 8.0°C (46°F) [RH = 55%]
Pressure (altimeter): 30.06 inches Hg (1018.0 mb)
Winds: variable direction winds at 1 MPH (1 knots; 0.5 m/s)
Visibility: 6 or more miles (10+ km)
Ceiling: ceiling and visibility are OK
Clouds: unknown
Weather: no significant weather observed at this time

METAR text: LEGR 290330Z AUTO 15002KT CAVOK 16/07 Q1018
Conditions at: LEGR (GRANADA AIRPORT , ES) observed 0330 UTC 29 June 2022
Temperature: 16.0°C (61°F)
Dewpoint: 7.0°C (45°F) [RH = 55%]
Pressure (altimeter): 30.06 inches Hg (1018.0 mb)
Winds: from the SSE (150 degrees) at 2 MPH (2 knots; 1.0 m/s)
Visibility: 6 or more miles (10+ km)
Ceiling: ceiling and visibility are OK
Clouds: unknown
Weather: no significant weather observed at this time

Forecast for: LEGR (GRANADA AIRPORT , ES)
Text: TAF LEGR 282300Z 2900/2924 VRB02KT CAVOK TX35/2915Z TN14/2905Z
Forecast period: 0000 to 1300 UTC 29 June 2022
Forecast type: FROM: standard forecast or significant change
Winds: variable direction winds at 2 MPH (2 knots; 1.0 m/s)
Visibility: 6 or more miles (10+ km)
Ceiling: unknown
Clouds: missing
Weather: no significant weather forecast for this period
Text: BECMG 2913/2915 27010KT
Forecast period: 1300 to 1800 UTC 29 June 2022
Forecast type: BECOMING: Conditions expected to become as follows by 1500 UTC 29 June 2022
Winds: from the W (270 degrees) at 12 MPH (10 knots; 5.1 m/s)
Visibility: 6 or more miles (10+ km)
Ceiling: unknown
Clouds: missing
Weather: no significant weather forecast for this period
Text: BECMG 2918/2920 20010KT
Forecast period: 1800 UTC 29 June 2022 to 0000 UTC 30 June 2022
Forecast type: BECOMING: Conditions expected to become as follows by 2000 UTC 29 June 2022
Winds: from the SSW (200 degrees) at 12 MPH (10 knots; 5.1 m/s)
Visibility: 6 or more miles (10+ km)
Ceiling: unknown
Clouds: missing
Weather: no significant weather forecast for this period

 MAPA DE AEROPUERTO

 INFORMACIÓN DE PISTA
Pista 09 Longitud 9514 ft Ancho 148 ft
Elevación 1842 ft Umbral desplazado 0 ft Rumbo de pista 90
Pista 27 Longitud 9514 ft Ancho 148 ft
Elevación 1860 ft Umbral desplazado 0 ft Rumbo de pista 270

 FRECUANCIAS DEL AEROPUERTO
Tipo GND Nombre GND Frecuencia 121.7 MHZ
Tipo TWR Nombre TWR Frecuencia 118.85 MHZ

 RADIO AYUDAS DEL AEROPUERTO
Tipo VOR-DME Nombre Granada Frecuencia 113400 KHZ



Powered by Virtual Airlines Manager [v2.6.2]